sensor_id;sensor_type;location;lat;lon;timestamp;P1;durP1;ratioP1;P2;durP2;ratioP2
69161;SDS011;56269;51.738;21.652;2023-02-22T00:00:57;8.45;;;2.63;;
69161;SDS011;56269;51.738;21.652;2023-02-22T00:03:32;16.53;;;3.73;;
69161;SDS011;56269;51.738;21.652;2023-02-22T00:06:03;10.80;;;1.95;;
69161;SDS011;56269;51.738;21.652;2023-02-22T00:08:32;12.15;;;3.10;;
69161;SDS011;56269;51.738;21.652;2023-02-22T00:11:01;7.57;;;2.63;;
69161;SDS011;56269;51.738;21.652;2023-02-22T00:13:29;6.53;;;2.38;;
69161;SDS011;56269;51.738;21.652;2023-02-22T00:15:56;14.60;;;3.30;;
69161;SDS011;56269;51.738;21.652;2023-02-22T00:18:23;9.93;;;2.67;;
69161;SDS011;56269;51.738;21.652;2023-02-22T00:20:52;11.73;;;2.80;;
69161;SDS011;56269;51.738;21.652;2023-02-22T00:23:20;7.10;;;1.80;;
69161;SDS011;56269;51.738;21.652;2023-02-22T00:25:48;11.88;;;4.38;;
69161;SDS011;56269;51.738;21.652;2023-02-22T00:28:16;13.83;;;2.60;;
69161;SDS011;56269;51.738;21.652;2023-02-22T00:30:43;10.30;;;2.53;;
69161;SDS011;56269;51.738;21.652;2023-02-22T00:33:11;9.75;;;2.85;;
69161;SDS011;56269;51.738;21.652;2023-02-22T00:35:38;15.57;;;3.33;;
69161;SDS011;56269;51.738;21.652;2023-02-22T00:38:04;18.48;;;3.15;;
69161;SDS011;56269;51.738;21.652;2023-02-22T00:40:32;10.43;;;2.50;;
69161;SDS011;56269;51.738;21.652;2023-02-22T00:43:00;4.80;;;1.42;;
69161;SDS011;56269;51.738;21.652;2023-02-22T00:45:28;5.75;;;1.70;;
69161;SDS011;56269;51.738;21.652;2023-02-22T00:47:56;10.02;;;2.97;;
69161;SDS011;56269;51.738;21.652;2023-02-22T00:50:24;17.23;;;3.00;;
69161;SDS011;56269;51.738;21.652;2023-02-22T00:52:54;11.73;;;2.40;;
69161;SDS011;56269;51.738;21.652;2023-02-22T00:55:26;11.52;;;2.60;;
69161;SDS011;56269;51.738;21.652;2023-02-22T00:57:57;15.40;;;3.40;;
69161;SDS011;56269;51.738;21.652;2023-02-22T01:00:25;15.95;;;3.55;;
69161;SDS011;56269;51.738;21.652;2023-02-22T01:02:54;11.27;;;3.15;;
69161;SDS011;56269;51.738;21.652;2023-02-22T01:05:23;11.23;;;3.00;;
69161;SDS011;56269;51.738;21.652;2023-02-22T01:07:54;4.38;;;2.03;;
69161;SDS011;56269;51.738;21.652;2023-02-22T01:10:22;6.65;;;2.40;;
69161;SDS011;56269;51.738;21.652;2023-02-22T01:12:52;10.07;;;3.15;;
69161;SDS011;56269;51.738;21.652;2023-02-22T01:15:22;16.42;;;3.20;;
69161;SDS011;56269;51.738;21.652;2023-02-22T01:17:50;13.10;;;3.07;;
69161;SDS011;56269;51.738;21.652;2023-02-22T01:20:18;11.65;;;2.85;;
69161;SDS011;56269;51.738;21.652;2023-02-22T01:22:48;15.75;;;3.53;;
69161;SDS011;56269;51.738;21.652;2023-02-22T01:25:17;12.88;;;2.85;;
69161;SDS011;56269;51.738;21.652;2023-02-22T01:27:50;18.92;;;3.85;;
69161;SDS011;56269;51.738;21.652;2023-02-22T01:30:19;10.90;;;2.83;;
69161;SDS011;56269;51.738;21.652;2023-02-22T01:32:48;7.32;;;2.78;;
69161;SDS011;56269;51.738;21.652;2023-02-22T01:35:16;10.30;;;2.40;;
69161;SDS011;56269;51.738;21.652;2023-02-22T01:37:45;11.20;;;2.67;;
69161;SDS011;56269;51.738;21.652;2023-02-22T01:40:15;16.45;;;3.72;;
69161;SDS011;56269;51.738;21.652;2023-02-22T01:42:47;14.17;;;2.90;;
69161;SDS011;56269;51.738;21.652;2023-02-22T01:50:28;16.63;;;3.92;;
69161;SDS011;56269;51.738;21.652;2023-02-22T01:53:00;13.85;;;3.80;;
69161;SDS011;56269;51.738;21.652;2023-02-22T01:55:30;14.97;;;3.90;;
69161;SDS011;56269;51.738;21.652;2023-02-22T01:57:58;12.85;;;3.97;;
69161;SDS011;56269;51.738;21.652;2023-02-22T02:00:24;13.55;;;4.63;;
69161;SDS011;56269;51.738;21.652;2023-02-22T02:03:03;11.75;;;3.42;;
69161;SDS011;56269;51.738;21.652;2023-02-22T02:05:34;9.75;;;3.10;;
69161;SDS011;56269;51.738;21.652;2023-02-22T02:08:37;7.57;;;2.93;;
69161;SDS011;56269;51.738;21.652;2023-02-22T02:11:15;13.18;;;3.15;;
69161;SDS011;56269;51.738;21.652;2023-02-22T02:13:44;13.77;;;3.58;;
69161;SDS011;56269;51.738;21.652;2023-02-22T02:16:11;12.93;;;3.72;;
69161;SDS011;56269;51.738;21.652;2023-02-22T02:18:37;15.50;;;3.60;;
69161;SDS011;56269;51.738;21.652;2023-02-22T02:27:21;9.48;;;2.88;;
69161;SDS011;56269;51.738;21.652;2023-02-22T02:36:00;9.37;;;3.13;;
69161;SDS011;56269;51.738;21.652;2023-02-22T02:41:08;15.70;;;3.30;;
69161;SDS011;56269;51.738;21.652;2023-02-22T02:43:50;10.73;;;2.92;;
69161;SDS011;56269;51.738;21.652;2023-02-22T02:46:35;10.35;;;2.60;;
69161;SDS011;56269;51.738;21.652;2023-02-22T02:49:13;13.43;;;3.60;;
69161;SDS011;56269;51.738;21.652;2023-02-22T02:51:45;12.43;;;3.95;;
69161;SDS011;56269;51.738;21.652;2023-02-22T02:54:14;11.15;;;3.55;;
69161;SDS011;56269;51.738;21.652;2023-02-22T02:56:42;10.38;;;3.00;;
69161;SDS011;56269;51.738;21.652;2023-02-22T02:59:27;11.00;;;2.83;;
69161;SDS011;56269;51.738;21.652;2023-02-22T03:08:06;8.40;;;2.67;;
69161;SDS011;56269;51.738;21.652;2023-02-22T03:10:44;13.82;;;3.50;;
69161;SDS011;56269;51.738;21.652;2023-02-22T03:30:00;16.57;;;2.50;;
69161;SDS011;56269;51.738;21.652;2023-02-22T03:32:37;9.45;;;2.70;;
69161;SDS011;56269;51.738;21.652;2023-02-22T03:35:09;6.85;;;2.15;;
69161;SDS011;56269;51.738;21.652;2023-02-22T03:37:40;5.50;;;2.28;;
69161;SDS011;56269;51.738;21.652;2023-02-22T03:40:11;14.07;;;3.40;;
69161;SDS011;56269;51.738;21.652;2023-02-22T03:42:45;13.73;;;2.93;;
69161;SDS011;56269;51.738;21.652;2023-02-22T03:45:16;10.65;;;2.88;;
69161;SDS011;56269;51.738;21.652;2023-02-22T03:47:48;13.05;;;3.08;;
69161;SDS011;56269;51.738;21.652;2023-02-22T03:50:27;19.25;;;2.90;;
69161;SDS011;56269;51.738;21.652;2023-02-22T03:52:57;13.70;;;3.33;;
69161;SDS011;56269;51.738;21.652;2023-02-22T03:55:26;14.87;;;3.40;;
69161;SDS011;56269;51.738;21.652;2023-02-22T03:57:56;8.73;;;2.25;;
69161;SDS011;56269;51.738;21.652;2023-02-22T04:00:25;12.13;;;3.88;;
69161;SDS011;56269;51.738;21.652;2023-02-22T04:02:53;7.43;;;2.17;;
69161;SDS011;56269;51.738;21.652;2023-02-22T04:05:20;16.30;;;3.85;;
69161;SDS011;56269;51.738;21.652;2023-02-22T04:07:46;11.97;;;3.00;;
69161;SDS011;56269;51.738;21.652;2023-02-22T04:10:14;8.07;;;2.38;;
69161;SDS011;56269;51.738;21.652;2023-02-22T04:12:41;16.13;;;3.95;;
69161;SDS011;56269;51.738;21.652;2023-02-22T04:15:07;13.70;;;3.47;;
69161;SDS011;56269;51.738;21.652;2023-02-22T04:17:36;10.73;;;3.05;;
69161;SDS011;56269;51.738;21.652;2023-02-22T04:20:02;13.87;;;3.93;;
69161;SDS011;56269;51.738;21.652;2023-02-22T04:22:29;12.10;;;3.95;;
69161;SDS011;56269;51.738;21.652;2023-02-22T04:24:56;9.45;;;3.10;;
69161;SDS011;56269;51.738;21.652;2023-02-22T04:27:22;11.85;;;3.50;;
69161;SDS011;56269;51.738;21.652;2023-02-22T04:29:48;11.35;;;3.55;;
69161;SDS011;56269;51.738;21.652;2023-02-22T04:32:14;13.67;;;3.43;;
69161;SDS011;56269;51.738;21.652;2023-02-22T04:34:41;14.57;;;4.15;;
69161;SDS011;56269;51.738;21.652;2023-02-22T04:37:07;10.80;;;3.72;;
69161;SDS011;56269;51.738;21.652;2023-02-22T04:39:35;17.10;;;3.83;;
69161;SDS011;56269;51.738;21.652;2023-02-22T04:42:01;14.27;;;3.85;;
69161;SDS011;56269;51.738;21.652;2023-02-22T04:44:27;15.93;;;4.07;;
69161;SDS011;56269;51.738;21.652;2023-02-22T04:46:53;13.50;;;3.80;;
69161;SDS011;56269;51.738;21.652;2023-02-22T04:49:21;11.77;;;3.13;;
69161;SDS011;56269;51.738;21.652;2023-02-22T04:51:47;15.35;;;4.00;;
69161;SDS011;56269;51.738;21.652;2023-02-22T04:54:14;14.85;;;4.32;;
69161;SDS011;56269;51.738;21.652;2023-02-22T04:56:42;15.00;;;3.50;;
69161;SDS011;56269;51.738;21.652;2023-02-22T04:59:09;18.00;;;4.90;;
69161;SDS011;56269;51.738;21.652;2023-02-22T05:01:35;15.65;;;4.30;;
69161;SDS011;56269;51.738;21.652;2023-02-22T05:04:03;14.75;;;4.20;;
69161;SDS011;56269;51.738;21.652;2023-02-22T05:06:30;20.25;;;4.50;;
69161;SDS011;56269;51.738;21.652;2023-02-22T05:08:56;12.63;;;3.80;;
69161;SDS011;56269;51.738;21.652;2023-02-22T05:11:22;15.30;;;4.03;;
69161;SDS011;56269;51.738;21.652;2023-02-22T05:13:49;15.70;;;4.47;;
69161;SDS011;56269;51.738;21.652;2023-02-22T05:16:15;12.60;;;3.95;;
69161;SDS011;56269;51.738;21.652;2023-02-22T05:18:42;13.50;;;4.20;;
69161;SDS011;56269;51.738;21.652;2023-02-22T05:21:08;12.77;;;3.93;;
69161;SDS011;56269;51.738;21.652;2023-02-22T05:23:35;12.32;;;3.65;;
69161;SDS011;56269;51.738;21.652;2023-02-22T05:26:01;11.18;;;2.92;;
69161;SDS011;56269;51.738;21.652;2023-02-22T05:28:31;14.85;;;4.28;;
69161;SDS011;56269;51.738;21.652;2023-02-22T05:30:57;13.70;;;3.53;;
69161;SDS011;56269;51.738;21.652;2023-02-22T05:33:23;16.17;;;4.50;;
69161;SDS011;56269;51.738;21.652;2023-02-22T05:35:49;12.38;;;2.95;;
69161;SDS011;56269;51.738;21.652;2023-02-22T05:38:16;14.52;;;4.13;;
69161;SDS011;56269;51.738;21.652;2023-02-22T05:40:42;8.88;;;3.25;;
69161;SDS011;56269;51.738;21.652;2023-02-22T05:43:09;10.13;;;2.85;;
69161;SDS011;56269;51.738;21.652;2023-02-22T05:45:35;14.77;;;4.57;;
69161;SDS011;56269;51.738;21.652;2023-02-22T05:48:01;12.18;;;4.13;;
69161;SDS011;56269;51.738;21.652;2023-02-22T05:50:28;13.35;;;4.15;;
69161;SDS011;56269;51.738;21.652;2023-02-22T05:52:55;16.92;;;5.40;;
69161;SDS011;56269;51.738;21.652;2023-02-22T05:55:22;18.02;;;4.32;;
69161;SDS011;56269;51.738;21.652;2023-02-22T05:57:49;12.80;;;3.60;;
69161;SDS011;56269;51.738;21.652;2023-02-22T06:00:17;8.60;;;3.25;;
69161;SDS011;56269;51.738;21.652;2023-02-22T06:02:57;11.57;;;4.30;;
69161;SDS011;56269;51.738;21.652;2023-02-22T06:05:25;8.57;;;3.00;;
69161;SDS011;56269;51.738;21.652;2023-02-22T06:07:52;7.70;;;2.60;;
69161;SDS011;56269;51.738;21.652;2023-02-22T06:10:18;5.87;;;1.93;;
69161;SDS011;56269;51.738;21.652;2023-02-22T06:12:47;5.93;;;1.60;;
69161;SDS011;56269;51.738;21.652;2023-02-22T06:15:14;6.25;;;1.92;;
69161;SDS011;56269;51.738;21.652;2023-02-22T06:17:41;6.80;;;1.88;;
69161;SDS011;56269;51.738;21.652;2023-02-22T06:20:11;6.57;;;1.77;;
69161;SDS011;56269;51.738;21.652;2023-02-22T06:22:40;7.03;;;2.20;;
69161;SDS011;56269;51.738;21.652;2023-02-22T06:25:07;6.55;;;2.22;;
69161;SDS011;56269;51.738;21.652;2023-02-22T06:27:34;7.22;;;2.15;;
69161;SDS011;56269;51.738;21.652;2023-02-22T06:30:00;8.38;;;2.20;;
69161;SDS011;56269;51.738;21.652;2023-02-22T06:32:27;7.03;;;2.00;;
69161;SDS011;56269;51.738;21.652;2023-02-22T06:34:53;4.97;;;1.63;;
69161;SDS011;56269;51.738;21.652;2023-02-22T06:37:20;8.07;;;2.33;;
69161;SDS011;56269;51.738;21.652;2023-02-22T06:39:46;6.22;;;2.03;;
69161;SDS011;56269;51.738;21.652;2023-02-22T06:42:12;7.72;;;2.60;;
69161;SDS011;56269;51.738;21.652;2023-02-22T06:44:38;8.02;;;2.58;;
69161;SDS011;56269;51.738;21.652;2023-02-22T06:47:04;6.50;;;2.10;;
69161;SDS011;56269;51.738;21.652;2023-02-22T06:49:31;6.32;;;2.22;;
69161;SDS011;56269;51.738;21.652;2023-02-22T06:51:57;6.72;;;1.98;;
69161;SDS011;56269;51.738;21.652;2023-02-22T06:54:23;5.50;;;1.70;;
69161;SDS011;56269;51.738;21.652;2023-02-22T06:56:50;6.22;;;2.30;;
69161;SDS011;56269;51.738;21.652;2023-02-22T06:59:16;6.07;;;2.07;;
69161;SDS011;56269;51.738;21.652;2023-02-22T07:01:43;7.18;;;2.05;;
69161;SDS011;56269;51.738;21.652;2023-02-22T07:04:09;7.07;;;2.08;;
69161;SDS011;56269;51.738;21.652;2023-02-22T07:06:36;6.18;;;2.00;;
69161;SDS011;56269;51.738;21.652;2023-02-22T07:09:02;5.95;;;1.92;;
69161;SDS011;56269;51.738;21.652;2023-02-22T07:11:29;6.17;;;1.80;;
69161;SDS011;56269;51.738;21.652;2023-02-22T07:13:54;5.75;;;1.88;;
69161;SDS011;56269;51.738;21.652;2023-02-22T07:16:21;5.85;;;1.77;;
69161;SDS011;56269;51.738;21.652;2023-02-22T07:18:47;7.72;;;2.03;;
69161;SDS011;56269;51.738;21.652;2023-02-22T07:21:13;7.50;;;2.15;;
69161;SDS011;56269;51.738;21.652;2023-02-22T07:23:39;6.17;;;2.07;;
69161;SDS011;56269;51.738;21.652;2023-02-22T07:26:06;5.70;;;2.10;;
69161;SDS011;56269;51.738;21.652;2023-02-22T07:28:32;7.10;;;2.00;;
69161;SDS011;56269;51.738;21.652;2023-02-22T07:30:59;7.50;;;2.53;;
69161;SDS011;56269;51.738;21.652;2023-02-22T07:33:25;9.05;;;2.50;;
69161;SDS011;56269;51.738;21.652;2023-02-22T07:35:52;7.40;;;2.67;;
69161;SDS011;56269;51.738;21.652;2023-02-22T07:38:18;7.22;;;2.40;;
69161;SDS011;56269;51.738;21.652;2023-02-22T07:40:46;8.30;;;2.42;;
69161;SDS011;56269;51.738;21.652;2023-02-22T07:45:42;8.40;;;2.88;;
69161;SDS011;56269;51.738;21.652;2023-02-22T07:48:09;7.60;;;2.53;;
69161;SDS011;56269;51.738;21.652;2023-02-22T07:50:37;7.43;;;2.63;;
69161;SDS011;56269;51.738;21.652;2023-02-22T07:53:04;8.52;;;2.40;;
69161;SDS011;56269;51.738;21.652;2023-02-22T07:55:32;7.25;;;2.67;;
69161;SDS011;56269;51.738;21.652;2023-02-22T07:58:00;7.38;;;2.42;;
69161;SDS011;56269;51.738;21.652;2023-02-22T08:00:29;7.60;;;2.30;;
69161;SDS011;56269;51.738;21.652;2023-02-22T08:03:01;6.65;;;2.75;;
69161;SDS011;56269;51.738;21.652;2023-02-22T08:05:29;7.40;;;2.50;;
69161;SDS011;56269;51.738;21.652;2023-02-22T08:07:57;9.15;;;2.60;;
69161;SDS011;56269;51.738;21.652;2023-02-22T08:10:24;6.53;;;2.30;;
69161;SDS011;56269;51.738;21.652;2023-02-22T08:12:51;8.00;;;2.87;;
69161;SDS011;56269;51.738;21.652;2023-02-22T08:17:56;8.07;;;2.72;;
69161;SDS011;56269;51.738;21.652;2023-02-22T08:20:23;7.25;;;2.20;;
69161;SDS011;56269;51.738;21.652;2023-02-22T08:22:49;6.78;;;2.13;;
69161;SDS011;56269;51.738;21.652;2023-02-22T08:25:17;5.97;;;2.10;;
69161;SDS011;56269;51.738;21.652;2023-02-22T08:27:45;5.85;;;1.90;;
69161;SDS011;56269;51.738;21.652;2023-02-22T08:30:13;7.03;;;2.10;;
69161;SDS011;56269;51.738;21.652;2023-02-22T08:32:42;6.07;;;2.00;;
69161;SDS011;56269;51.738;21.652;2023-02-22T08:35:11;6.90;;;1.90;;
69161;SDS011;56269;51.738;21.652;2023-02-22T08:37:42;6.60;;;1.57;;
69161;SDS011;56269;51.738;21.652;2023-02-22T08:40:09;5.93;;;1.65;;
69161;SDS011;56269;51.738;21.652;2023-02-22T08:42:37;5.25;;;1.55;;
69161;SDS011;56269;51.738;21.652;2023-02-22T08:45:03;4.70;;;1.50;;
69161;SDS011;56269;51.738;21.652;2023-02-22T08:47:29;4.28;;;1.20;;
69161;SDS011;56269;51.738;21.652;2023-02-22T08:49:56;6.40;;;1.80;;
69161;SDS011;56269;51.738;21.652;2023-02-22T08:52:22;5.22;;;1.50;;
69161;SDS011;56269;51.738;21.652;2023-02-22T08:54:48;4.50;;;1.25;;
69161;SDS011;56269;51.738;21.652;2023-02-22T08:57:16;3.75;;;1.27;;
69161;SDS011;56269;51.738;21.652;2023-02-22T08:59:42;3.85;;;1.30;;
69161;SDS011;56269;51.738;21.652;2023-02-22T09:02:15;3.30;;;1.00;;
69161;SDS011;56269;51.738;21.652;2023-02-22T09:04:43;4.40;;;1.10;;
69161;SDS011;56269;51.738;21.652;2023-02-22T09:07:09;4.25;;;1.50;;
69161;SDS011;56269;51.738;21.652;2023-02-22T09:09:35;4.80;;;1.45;;
69161;SDS011;56269;51.738;21.652;2023-02-22T09:12:02;4.63;;;1.10;;
69161;SDS011;56269;51.738;21.652;2023-02-22T09:14:29;3.40;;;1.13;;
69161;SDS011;56269;51.738;21.652;2023-02-22T09:16:55;3.70;;;1.15;;
69161;SDS011;56269;51.738;21.652;2023-02-22T09:19:26;3.00;;;0.93;;
69161;SDS011;56269;51.738;21.652;2023-02-22T09:21:54;4.43;;;1.35;;
69161;SDS011;56269;51.738;21.652;2023-02-22T09:24:25;3.63;;;1.20;;
69161;SDS011;56269;51.738;21.652;2023-02-22T09:26:54;5.80;;;1.23;;
69161;SDS011;56269;51.738;21.652;2023-02-22T09:29:27;3.03;;;1.05;;
69161;SDS011;56269;51.738;21.652;2023-02-22T09:31:55;4.22;;;1.30;;
69161;SDS011;56269;51.738;21.652;2023-02-22T09:34:25;4.47;;;1.08;;
69161;SDS011;56269;51.738;21.652;2023-02-22T09:36:56;2.55;;;0.98;;
69161;SDS011;56269;51.738;21.652;2023-02-22T09:39:25;4.67;;;1.00;;
69161;SDS011;56269;51.738;21.652;2023-02-22T09:47:03;2.28;;;0.93;;
69161;SDS011;56269;51.738;21.652;2023-02-22T09:49:38;2.35;;;0.90;;
69161;SDS011;56269;51.738;21.652;2023-02-22T09:52:19;3.33;;;1.10;;
69161;SDS011;56269;51.738;21.652;2023-02-22T09:55:07;3.35;;;0.95;;
69161;SDS011;56269;51.738;21.652;2023-02-22T09:57:54;4.22;;;1.00;;
69161;SDS011;56269;51.738;21.652;2023-02-22T10:00:37;4.95;;;1.30;;
69161;SDS011;56269;51.738;21.652;2023-02-22T10:03:28;4.05;;;1.05;;
69161;SDS011;56269;51.738;21.652;2023-02-22T10:06:18;2.27;;;0.83;;
69161;SDS011;56269;51.738;21.652;2023-02-22T10:08:50;3.40;;;1.00;;
69161;SDS011;56269;51.738;21.652;2023-02-22T10:13:56;3.90;;;0.95;;
69161;SDS011;56269;51.738;21.652;2023-02-22T10:16:39;3.95;;;1.20;;
69161;SDS011;56269;51.738;21.652;2023-02-22T10:19:21;2.83;;;0.90;;
69161;SDS011;56269;51.738;21.652;2023-02-22T10:30:14;2.90;;;0.90;;
69161;SDS011;56269;51.738;21.652;2023-02-22T10:32:49;3.23;;;1.10;;
69161;SDS011;56269;51.738;21.652;2023-02-22T10:35:32;3.78;;;1.10;;
69161;SDS011;56269;51.738;21.652;2023-02-22T10:40:51;2.97;;;1.02;;
69161;SDS011;56269;51.738;21.652;2023-02-22T10:43:40;4.50;;;1.20;;
69161;SDS011;56269;51.738;21.652;2023-02-22T10:46:14;3.30;;;1.03;;
69161;SDS011;56269;51.738;21.652;2023-02-22T10:48:47;3.50;;;0.90;;
69161;SDS011;56269;51.738;21.652;2023-02-22T10:51:19;2.53;;;0.80;;
69161;SDS011;56269;51.738;21.652;2023-02-22T10:53:57;3.05;;;1.00;;
69161;SDS011;56269;51.738;21.652;2023-02-22T10:56:49;1.73;;;0.70;;
69161;SDS011;56269;51.738;21.652;2023-02-22T10:59:30;1.67;;;0.70;;
69161;SDS011;56269;51.738;21.652;2023-02-22T11:02:00;3.47;;;1.00;;
69161;SDS011;56269;51.738;21.652;2023-02-22T11:04:48;1.83;;;0.77;;
69161;SDS011;56269;51.738;21.652;2023-02-22T11:07:19;1.98;;;0.80;;
69161;SDS011;56269;51.738;21.652;2023-02-22T11:09:54;2.15;;;0.63;;
69161;SDS011;56269;51.738;21.652;2023-02-22T11:12:28;3.40;;;0.90;;
69161;SDS011;56269;51.738;21.652;2023-02-22T11:17:52;1.63;;;1.00;;
69161;SDS011;56269;51.738;21.652;2023-02-22T11:20:32;2.60;;;0.90;;
69161;SDS011;56269;51.738;21.652;2023-02-22T11:23:03;4.53;;;1.40;;
69161;SDS011;56269;51.738;21.652;2023-02-22T11:25:36;2.60;;;0.93;;
69161;SDS011;56269;51.738;21.652;2023-02-22T11:28:19;4.05;;;1.17;;
69161;SDS011;56269;51.738;21.652;2023-02-22T11:31:10;4.07;;;1.38;;
69161;SDS011;56269;51.738;21.652;2023-02-22T11:34:02;3.20;;;0.90;;
69161;SDS011;56269;51.738;21.652;2023-02-22T11:36:37;4.90;;;1.40;;
69161;SDS011;56269;51.738;21.652;2023-02-22T11:39:29;4.70;;;1.13;;
69161;SDS011;56269;51.738;21.652;2023-02-22T11:42:19;0.88;;;0.45;;
69161;SDS011;56269;51.738;21.652;2023-02-22T11:44:50;2.25;;;0.77;;
69161;SDS011;56269;51.738;21.652;2023-02-22T11:50:29;4.78;;;1.40;;
69161;SDS011;56269;51.738;21.652;2023-02-22T11:55:52;4.63;;;1.30;;
69161;SDS011;56269;51.738;21.652;2023-02-22T12:01:07;6.20;;;1.90;;
69161;SDS011;56269;51.738;21.652;2023-02-22T12:09:42;4.18;;;1.20;;
69161;SDS011;56269;51.738;21.652;2023-02-22T12:17:36;5.25;;;1.58;;
69161;SDS011;56269;51.738;21.652;2023-02-22T12:23:22;6.05;;;1.77;;
69161;SDS011;56269;51.738;21.652;2023-02-22T12:25:56;5.53;;;1.55;;
69161;SDS011;56269;51.738;21.652;2023-02-22T12:31:00;5.35;;;1.30;;
69161;SDS011;56269;51.738;21.652;2023-02-22T12:33:39;3.93;;;1.30;;
69161;SDS011;56269;51.738;21.652;2023-02-22T12:36:12;5.20;;;1.65;;
69161;SDS011;56269;51.738;21.652;2023-02-22T12:38:43;5.20;;;1.80;;
69161;SDS011;56269;51.738;21.652;2023-02-22T12:44:00;6.45;;;2.10;;
69161;SDS011;56269;51.738;21.652;2023-02-22T12:52:15;3.72;;;1.17;;
69161;SDS011;56269;51.738;21.652;2023-02-22T12:58:05;6.25;;;2.08;;
69161;SDS011;56269;51.738;21.652;2023-02-22T13:01:19;4.27;;;1.53;;
69161;SDS011;56269;51.738;21.652;2023-02-22T13:03:53;7.50;;;2.22;;
69161;SDS011;56269;51.738;21.652;2023-02-22T13:15:28;7.67;;;2.53;;
69161;SDS011;56269;51.738;21.652;2023-02-22T13:18:18;5.63;;;1.60;;
69161;SDS011;56269;51.738;21.652;2023-02-22T13:24:00;10.13;;;3.63;;
69161;SDS011;56269;51.738;21.652;2023-02-22T13:26:40;8.60;;;2.97;;
69161;SDS011;56269;51.738;21.652;2023-02-22T13:32:03;6.30;;;2.13;;
69161;SDS011;56269;51.738;21.652;2023-02-22T13:41:07;6.82;;;2.10;;
69161;SDS011;56269;51.738;21.652;2023-02-22T13:44:28;8.47;;;2.50;;
69161;SDS011;56269;51.738;21.652;2023-02-22T13:46:35;6.32;;;2.35;;
69161;SDS011;56269;51.738;21.652;2023-02-22T13:52:27;5.47;;;1.70;;
69161;SDS011;56269;51.738;21.652;2023-02-22T13:54:58;6.72;;;2.28;;
69161;SDS011;56269;51.738;21.652;2023-02-22T13:57:33;5.93;;;1.97;;
69161;SDS011;56269;51.738;21.652;2023-02-22T14:02:57;8.27;;;2.25;;
69161;SDS011;56269;51.738;21.652;2023-02-22T14:11:57;6.80;;;2.00;;
69161;SDS011;56269;51.738;21.652;2023-02-22T14:16:31;8.45;;;2.35;;
69161;SDS011;56269;51.738;21.652;2023-02-22T14:19:11;7.00;;;2.63;;
69161;SDS011;56269;51.738;21.652;2023-02-22T14:21:58;8.15;;;2.83;;
69161;SDS011;56269;51.738;21.652;2023-02-22T14:27:14;7.55;;;2.67;;
69161;SDS011;56269;51.738;21.652;2023-02-22T14:32:29;6.75;;;2.15;;
69161;SDS011;56269;51.738;21.652;2023-02-22T14:35:05;7.75;;;2.88;;
69161;SDS011;56269;51.738;21.652;2023-02-22T14:37:43;10.33;;;2.97;;
69161;SDS011;56269;51.738;21.652;2023-02-22T14:42:56;9.30;;;3.10;;
69161;SDS011;56269;51.738;21.652;2023-02-22T14:45:30;7.97;;;2.25;;
69161;SDS011;56269;51.738;21.652;2023-02-22T14:51:26;9.40;;;3.10;;
69161;SDS011;56269;51.738;21.652;2023-02-22T14:53:59;9.85;;;2.55;;
69161;SDS011;56269;51.738;21.652;2023-02-22T14:56:33;8.77;;;2.45;;
69161;SDS011;56269;51.738;21.652;2023-02-22T14:59:22;9.38;;;3.08;;
69161;SDS011;56269;51.738;21.652;2023-02-22T15:02:09;10.10;;;3.45;;
69161;SDS011;56269;51.738;21.652;2023-02-22T15:04:38;8.47;;;2.37;;
69161;SDS011;56269;51.738;21.652;2023-02-22T15:07:25;10.13;;;2.72;;
69161;SDS011;56269;51.738;21.652;2023-02-22T15:10:41;7.78;;;2.45;;
69161;SDS011;56269;51.738;21.652;2023-02-22T15:13:00;9.05;;;2.88;;
69161;SDS011;56269;51.738;21.652;2023-02-22T15:15:38;10.77;;;3.70;;
69161;SDS011;56269;51.738;21.652;2023-02-22T15:18:17;9.87;;;3.23;;
69161;SDS011;56269;51.738;21.652;2023-02-22T15:20:47;7.53;;;2.55;;
69161;SDS011;56269;51.738;21.652;2023-02-22T15:23:24;8.02;;;2.97;;
69161;SDS011;56269;51.738;21.652;2023-02-22T15:25:55;9.25;;;2.90;;
69161;SDS011;56269;51.738;21.652;2023-02-22T15:28:22;11.63;;;3.15;;
69161;SDS011;56269;51.738;21.652;2023-02-22T15:30:55;6.53;;;2.37;;
69161;SDS011;56269;51.738;21.652;2023-02-22T15:33:38;6.57;;;2.20;;
69161;SDS011;56269;51.738;21.652;2023-02-22T15:36:11;11.75;;;2.42;;
69161;SDS011;56269;51.738;21.652;2023-02-22T15:38:40;8.32;;;2.50;;
69161;SDS011;56269;51.738;21.652;2023-02-22T15:41:18;8.82;;;2.92;;
69161;SDS011;56269;51.738;21.652;2023-02-22T15:46:30;9.60;;;2.85;;
69161;SDS011;56269;51.738;21.652;2023-02-22T15:51:36;7.40;;;2.45;;
69161;SDS011;56269;51.738;21.652;2023-02-22T15:54:06;9.30;;;3.17;;
69161;SDS011;56269;51.738;21.652;2023-02-22T15:56:47;12.47;;;3.87;;
69161;SDS011;56269;51.738;21.652;2023-02-22T15:59:20;8.48;;;3.20;;
69161;SDS011;56269;51.738;21.652;2023-02-22T16:01:48;8.40;;;2.95;;
69161;SDS011;56269;51.738;21.652;2023-02-22T16:04:18;11.27;;;3.40;;
69161;SDS011;56269;51.738;21.652;2023-02-22T16:06:47;10.48;;;2.88;;
69161;SDS011;56269;51.738;21.652;2023-02-22T16:09:16;13.43;;;4.57;;
69161;SDS011;56269;51.738;21.652;2023-02-22T16:12:05;11.38;;;3.80;;
69161;SDS011;56269;51.738;21.652;2023-02-22T16:20:00;7.70;;;2.50;;
69161;SDS011;56269;51.738;21.652;2023-02-22T16:22:37;12.03;;;3.80;;
69161;SDS011;56269;51.738;21.652;2023-02-22T16:25:12;7.97;;;2.40;;
69161;SDS011;56269;51.738;21.652;2023-02-22T16:27:56;9.70;;;2.78;;
69161;SDS011;56269;51.738;21.652;2023-02-22T16:30:34;6.10;;;2.30;;
69161;SDS011;56269;51.738;21.652;2023-02-22T16:33:03;7.10;;;1.88;;
69161;SDS011;56269;51.738;21.652;2023-02-22T16:35:31;7.80;;;2.67;;
69161;SDS011;56269;51.738;21.652;2023-02-22T16:38:01;8.75;;;2.85;;
69161;SDS011;56269;51.738;21.652;2023-02-22T16:43:13;7.72;;;2.08;;
69161;SDS011;56269;51.738;21.652;2023-02-22T16:45:43;7.00;;;2.40;;
69161;SDS011;56269;51.738;21.652;2023-02-22T16:48:11;7.23;;;2.37;;
69161;SDS011;56269;51.738;21.652;2023-02-22T16:50:42;8.15;;;2.60;;
69161;SDS011;56269;51.738;21.652;2023-02-22T16:53:08;8.30;;;3.00;;
69161;SDS011;56269;51.738;21.652;2023-02-22T16:55:35;7.88;;;3.03;;
69161;SDS011;56269;51.738;21.652;2023-02-22T16:58:02;8.27;;;2.42;;
69161;SDS011;56269;51.738;21.652;2023-02-22T17:00:29;8.87;;;3.00;;
69161;SDS011;56269;51.738;21.652;2023-02-22T17:03:00;6.75;;;2.25;;
69161;SDS011;56269;51.738;21.652;2023-02-22T17:05:29;9.88;;;3.38;;
69161;SDS011;56269;51.738;21.652;2023-02-22T17:08:01;8.38;;;2.88;;
69161;SDS011;56269;51.738;21.652;2023-02-22T17:10:29;5.95;;;1.95;;
69161;SDS011;56269;51.738;21.652;2023-02-22T17:12:57;7.00;;;2.47;;
69161;SDS011;56269;51.738;21.652;2023-02-22T17:15:29;6.55;;;2.50;;
69161;SDS011;56269;51.738;21.652;2023-02-22T17:17:57;9.10;;;2.22;;
69161;SDS011;56269;51.738;21.652;2023-02-22T17:20:24;7.95;;;3.17;;
69161;SDS011;56269;51.738;21.652;2023-02-22T17:22:57;10.43;;;3.83;;
69161;SDS011;56269;51.738;21.652;2023-02-22T17:25:32;5.90;;;2.50;;
69161;SDS011;56269;51.738;21.652;2023-02-22T17:28:11;7.28;;;2.45;;
69161;SDS011;56269;51.738;21.652;2023-02-22T17:30:38;11.85;;;3.70;;
69161;SDS011;56269;51.738;21.652;2023-02-22T17:33:06;7.43;;;2.70;;
69161;SDS011;56269;51.738;21.652;2023-02-22T17:35:35;7.30;;;3.00;;
69161;SDS011;56269;51.738;21.652;2023-02-22T17:38:04;9.33;;;3.30;;
69161;SDS011;56269;51.738;21.652;2023-02-22T17:40:33;10.68;;;3.83;;
69161;SDS011;56269;51.738;21.652;2023-02-22T17:43:02;5.50;;;1.88;;